sensor_id;sensor_type;location;lat;lon;timestamp;P1;durP1;ratioP1;P2;durP2;ratioP2
20379;SDS011;10349;48.666;8.948;2023-05-16T00:02:17;15.03;;;10.47;;
20379;SDS011;10349;48.666;8.948;2023-05-16T00:04:43;12.40;;;10.40;;
20379;SDS011;10349;48.666;8.948;2023-05-16T00:07:10;11.17;;;9.50;;
20379;SDS011;10349;48.666;8.948;2023-05-16T00:09:36;17.00;;;9.87;;
20379;SDS011;10349;48.666;8.948;2023-05-16T00:12:01;13.80;;;9.80;;
20379;SDS011;10349;48.666;8.948;2023-05-16T00:14:27;12.40;;;9.60;;
20379;SDS011;10349;48.666;8.948;2023-05-16T00:16:53;11.07;;;9.53;;
20379;SDS011;10349;48.666;8.948;2023-05-16T00:19:18;12.20;;;10.27;;
20379;SDS011;10349;48.666;8.948;2023-05-16T00:21:44;10.80;;;8.47;;
20379;SDS011;10349;48.666;8.948;2023-05-16T00:24:10;12.67;;;9.17;;
20379;SDS011;10349;48.666;8.948;2023-05-16T00:26:37;12.27;;;8.90;;
20379;SDS011;10349;48.666;8.948;2023-05-16T00:29:02;12.60;;;10.00;;
20379;SDS011;10349;48.666;8.948;2023-05-16T00:31:29;16.97;;;11.90;;
20379;SDS011;10349;48.666;8.948;2023-05-16T00:33:54;11.00;;;9.87;;
20379;SDS011;10349;48.666;8.948;2023-05-16T00:36:20;13.13;;;10.60;;
20379;SDS011;10349;48.666;8.948;2023-05-16T00:38:46;13.87;;;10.73;;
20379;SDS011;10349;48.666;8.948;2023-05-16T00:41:12;12.80;;;9.20;;
20379;SDS011;10349;48.666;8.948;2023-05-16T00:43:37;14.53;;;10.33;;
20379;SDS011;10349;48.666;8.948;2023-05-16T00:46:03;18.23;;;13.00;;
20379;SDS011;10349;48.666;8.948;2023-05-16T00:48:29;17.37;;;12.37;;
20379;SDS011;10349;48.666;8.948;2023-05-16T00:50:55;19.03;;;12.90;;
20379;SDS011;10349;48.666;8.948;2023-05-16T00:53:22;17.50;;;12.33;;
20379;SDS011;10349;48.666;8.948;2023-05-16T00:55:48;18.20;;;14.30;;
20379;SDS011;10349;48.666;8.948;2023-05-16T00:58:15;25.50;;;13.17;;
20379;SDS011;10349;48.666;8.948;2023-05-16T01:00:43;20.10;;;13.53;;
20379;SDS011;10349;48.666;8.948;2023-05-16T01:03:11;19.33;;;13.63;;
20379;SDS011;10349;48.666;8.948;2023-05-16T01:05:37;21.87;;;13.37;;
20379;SDS011;10349;48.666;8.948;2023-05-16T01:08:04;20.90;;;14.10;;
20379;SDS011;10349;48.666;8.948;2023-05-16T01:10:31;22.23;;;15.30;;
20379;SDS011;10349;48.666;8.948;2023-05-16T01:13:23;23.80;;;14.90;;
20379;SDS011;10349;48.666;8.948;2023-05-16T01:18:56;22.87;;;13.43;;
20379;SDS011;10349;48.666;8.948;2023-05-16T01:21:47;22.63;;;14.47;;
20379;SDS011;10349;48.666;8.948;2023-05-16T01:24:21;25.30;;;15.63;;
20379;SDS011;10349;48.666;8.948;2023-05-16T01:26:51;27.80;;;16.33;;
20379;SDS011;10349;48.666;8.948;2023-05-16T01:29:17;25.00;;;16.33;;
20379;SDS011;10349;48.666;8.948;2023-05-16T01:31:43;28.60;;;16.70;;
20379;SDS011;10349;48.666;8.948;2023-05-16T01:34:10;23.73;;;15.47;;
20379;SDS011;10349;48.666;8.948;2023-05-16T01:36:43;29.40;;;16.83;;
20379;SDS011;10349;48.666;8.948;2023-05-16T01:39:49;27.10;;;17.03;;
20379;SDS011;10349;48.666;8.948;2023-05-16T01:42:33;33.70;;;18.47;;
20379;SDS011;10349;48.666;8.948;2023-05-16T01:48:12;30.20;;;18.07;;
20379;SDS011;10349;48.666;8.948;2023-05-16T01:50:46;28.93;;;17.57;;
20379;SDS011;10349;48.666;8.948;2023-05-16T01:53:18;32.60;;;19.63;;
20379;SDS011;10349;48.666;8.948;2023-05-16T01:55:55;32.83;;;17.23;;
20379;SDS011;10349;48.666;8.948;2023-05-16T01:58:22;35.50;;;17.90;;
20379;SDS011;10349;48.666;8.948;2023-05-16T02:00:52;39.80;;;20.63;;
20379;SDS011;10349;48.666;8.948;2023-05-16T02:03:18;37.33;;;20.30;;
20379;SDS011;10349;48.666;8.948;2023-05-16T02:05:45;42.87;;;20.73;;
20379;SDS011;10349;48.666;8.948;2023-05-16T02:08:12;35.87;;;19.30;;
20379;SDS011;10349;48.666;8.948;2023-05-16T02:10:38;40.23;;;20.30;;
20379;SDS011;10349;48.666;8.948;2023-05-16T02:13:05;42.33;;;20.93;;
20379;SDS011;10349;48.666;8.948;2023-05-16T02:15:31;38.33;;;20.83;;
20379;SDS011;10349;48.666;8.948;2023-05-16T02:17:57;36.20;;;19.70;;
20379;SDS011;10349;48.666;8.948;2023-05-16T02:20:23;39.63;;;19.97;;
20379;SDS011;10349;48.666;8.948;2023-05-16T02:22:48;38.83;;;21.50;;
20379;SDS011;10349;48.666;8.948;2023-05-16T02:25:14;44.13;;;23.03;;
20379;SDS011;10349;48.666;8.948;2023-05-16T02:27:40;35.83;;;18.97;;
20379;SDS011;10349;48.666;8.948;2023-05-16T02:30:09;45.93;;;22.93;;
20379;SDS011;10349;48.666;8.948;2023-05-16T02:32:36;44.83;;;22.03;;
20379;SDS011;10349;48.666;8.948;2023-05-16T02:35:03;46.30;;;21.00;;
20379;SDS011;10349;48.666;8.948;2023-05-16T02:37:29;40.17;;;21.80;;
20379;SDS011;10349;48.666;8.948;2023-05-16T02:39:55;52.10;;;24.67;;
20379;SDS011;10349;48.666;8.948;2023-05-16T02:42:20;43.50;;;22.40;;
20379;SDS011;10349;48.666;8.948;2023-05-16T02:44:46;47.90;;;22.97;;
20379;SDS011;10349;48.666;8.948;2023-05-16T02:47:12;42.87;;;22.37;;
20379;SDS011;10349;48.666;8.948;2023-05-16T02:49:37;43.00;;;21.53;;
20379;SDS011;10349;48.666;8.948;2023-05-16T02:52:03;46.57;;;22.90;;
20379;SDS011;10349;48.666;8.948;2023-05-16T02:54:29;46.07;;;23.23;;
20379;SDS011;10349;48.666;8.948;2023-05-16T02:56:55;46.13;;;23.93;;
20379;SDS011;10349;48.666;8.948;2023-05-16T02:59:20;48.40;;;22.20;;
20379;SDS011;10349;48.666;8.948;2023-05-16T03:01:46;46.87;;;21.77;;
20379;SDS011;10349;48.666;8.948;2023-05-16T03:04:11;45.30;;;23.53;;
20379;SDS011;10349;48.666;8.948;2023-05-16T03:06:37;49.13;;;23.53;;
20379;SDS011;10349;48.666;8.948;2023-05-16T03:09:03;56.40;;;22.50;;
20379;SDS011;10349;48.666;8.948;2023-05-16T03:11:28;55.10;;;24.13;;
20379;SDS011;10349;48.666;8.948;2023-05-16T03:13:54;51.73;;;24.20;;
20379;SDS011;10349;48.666;8.948;2023-05-16T03:16:20;55.07;;;25.20;;
20379;SDS011;10349;48.666;8.948;2023-05-16T03:18:46;50.97;;;22.97;;
20379;SDS011;10349;48.666;8.948;2023-05-16T03:21:11;48.77;;;23.97;;
20379;SDS011;10349;48.666;8.948;2023-05-16T03:23:37;55.30;;;25.90;;
20379;SDS011;10349;48.666;8.948;2023-05-16T03:26:03;56.80;;;25.43;;
20379;SDS011;10349;48.666;8.948;2023-05-16T03:28:29;50.23;;;24.27;;
20379;SDS011;10349;48.666;8.948;2023-05-16T03:30:55;46.63;;;24.30;;
20379;SDS011;10349;48.666;8.948;2023-05-16T03:33:21;49.90;;;25.57;;
20379;SDS011;10349;48.666;8.948;2023-05-16T03:35:48;53.87;;;26.27;;
20379;SDS011;10349;48.666;8.948;2023-05-16T03:38:14;56.93;;;28.50;;
20379;SDS011;10349;48.666;8.948;2023-05-16T03:40:42;57.17;;;27.20;;
20379;SDS011;10349;48.666;8.948;2023-05-16T03:43:08;62.47;;;28.30;;
20379;SDS011;10349;48.666;8.948;2023-05-16T03:45:34;66.37;;;26.50;;
20379;SDS011;10349;48.666;8.948;2023-05-16T03:48:00;50.63;;;27.87;;
20379;SDS011;10349;48.666;8.948;2023-05-16T03:50:25;56.77;;;24.50;;
20379;SDS011;10349;48.666;8.948;2023-05-16T03:52:52;62.10;;;28.30;;
20379;SDS011;10349;48.666;8.948;2023-05-16T03:55:18;59.30;;;26.90;;
20379;SDS011;10349;48.666;8.948;2023-05-16T03:57:44;60.80;;;27.60;;
20379;SDS011;10349;48.666;8.948;2023-05-16T04:00:11;51.57;;;24.23;;
20379;SDS011;10349;48.666;8.948;2023-05-16T04:02:38;60.77;;;26.27;;
20379;SDS011;10349;48.666;8.948;2023-05-16T04:05:08;58.90;;;24.80;;
20379;SDS011;10349;48.666;8.948;2023-05-16T04:07:35;63.57;;;28.40;;
20379;SDS011;10349;48.666;8.948;2023-05-16T04:10:02;61.87;;;27.43;;
20379;SDS011;10349;48.666;8.948;2023-05-16T04:12:28;65.27;;;29.30;;
20379;SDS011;10349;48.666;8.948;2023-05-16T04:14:53;61.30;;;27.47;;
20379;SDS011;10349;48.666;8.948;2023-05-16T04:17:19;61.60;;;28.13;;
20379;SDS011;10349;48.666;8.948;2023-05-16T04:19:45;63.90;;;27.73;;
20379;SDS011;10349;48.666;8.948;2023-05-16T04:22:10;59.63;;;28.30;;
20379;SDS011;10349;48.666;8.948;2023-05-16T04:24:36;59.87;;;27.50;;
20379;SDS011;10349;48.666;8.948;2023-05-16T04:27:02;59.97;;;27.93;;
20379;SDS011;10349;48.666;8.948;2023-05-16T04:29:29;63.73;;;29.00;;
20379;SDS011;10349;48.666;8.948;2023-05-16T04:31:56;58.13;;;27.47;;
20379;SDS011;10349;48.666;8.948;2023-05-16T04:34:22;63.03;;;27.20;;
20379;SDS011;10349;48.666;8.948;2023-05-16T04:36:51;55.97;;;25.97;;
20379;SDS011;10349;48.666;8.948;2023-05-16T04:39:17;58.07;;;25.73;;
20379;SDS011;10349;48.666;8.948;2023-05-16T04:41:43;66.93;;;26.77;;
20379;SDS011;10349;48.666;8.948;2023-05-16T04:44:09;63.10;;;28.97;;
20379;SDS011;10349;48.666;8.948;2023-05-16T04:46:35;52.97;;;26.97;;
20379;SDS011;10349;48.666;8.948;2023-05-16T04:49:02;61.37;;;28.07;;
20379;SDS011;10349;48.666;8.948;2023-05-16T04:51:28;71.70;;;28.10;;
20379;SDS011;10349;48.666;8.948;2023-05-16T04:53:53;59.90;;;26.70;;
20379;SDS011;10349;48.666;8.948;2023-05-16T04:56:19;56.07;;;26.87;;
20379;SDS011;10349;48.666;8.948;2023-05-16T04:58:45;57.33;;;25.87;;
20379;SDS011;10349;48.666;8.948;2023-05-16T05:01:11;62.10;;;26.23;;
20379;SDS011;10349;48.666;8.948;2023-05-16T05:03:36;80.23;;;27.43;;
20379;SDS011;10349;48.666;8.948;2023-05-16T05:06:02;67.10;;;29.27;;
20379;SDS011;10349;48.666;8.948;2023-05-16T05:08:28;62.60;;;27.60;;
20379;SDS011;10349;48.666;8.948;2023-05-16T05:10:54;57.53;;;27.13;;
20379;SDS011;10349;48.666;8.948;2023-05-16T05:13:21;62.67;;;29.63;;
20379;SDS011;10349;48.666;8.948;2023-05-16T05:15:46;62.10;;;27.30;;
20379;SDS011;10349;48.666;8.948;2023-05-16T05:18:14;61.17;;;27.30;;
20379;SDS011;10349;48.666;8.948;2023-05-16T05:20:40;61.77;;;27.87;;
20379;SDS011;10349;48.666;8.948;2023-05-16T05:23:06;60.53;;;28.00;;
20379;SDS011;10349;48.666;8.948;2023-05-16T05:25:31;59.37;;;27.80;;
20379;SDS011;10349;48.666;8.948;2023-05-16T05:27:59;69.10;;;26.40;;
20379;SDS011;10349;48.666;8.948;2023-05-16T05:30:26;52.40;;;24.70;;
20379;SDS011;10349;48.666;8.948;2023-05-16T05:32:52;57.73;;;27.20;;
20379;SDS011;10349;48.666;8.948;2023-05-16T05:35:20;61.77;;;27.20;;
20379;SDS011;10349;48.666;8.948;2023-05-16T05:37:45;67.20;;;30.40;;
20379;SDS011;10349;48.666;8.948;2023-05-16T05:40:11;59.33;;;26.20;;
20379;SDS011;10349;48.666;8.948;2023-05-16T05:42:37;54.30;;;25.77;;
20379;SDS011;10349;48.666;8.948;2023-05-16T05:45:03;60.90;;;25.80;;
20379;SDS011;10349;48.666;8.948;2023-05-16T05:47:29;61.70;;;26.07;;
20379;SDS011;10349;48.666;8.948;2023-05-16T05:49:54;53.17;;;24.87;;
20379;SDS011;10349;48.666;8.948;2023-05-16T05:52:21;50.67;;;26.60;;
20379;SDS011;10349;48.666;8.948;2023-05-16T05:54:46;58.73;;;27.83;;
20379;SDS011;10349;48.666;8.948;2023-05-16T05:57:15;67.73;;;28.47;;
20379;SDS011;10349;48.666;8.948;2023-05-16T05:59:41;57.53;;;29.73;;
20379;SDS011;10349;48.666;8.948;2023-05-16T06:02:06;57.07;;;28.97;;
20379;SDS011;10349;48.666;8.948;2023-05-16T06:04:32;53.87;;;26.63;;
20379;SDS011;10349;48.666;8.948;2023-05-16T06:06:58;57.03;;;27.47;;
20379;SDS011;10349;48.666;8.948;2023-05-16T06:09:23;54.43;;;27.40;;
20379;SDS011;10349;48.666;8.948;2023-05-16T06:11:49;54.30;;;26.90;;
20379;SDS011;10349;48.666;8.948;2023-05-16T06:14:15;55.40;;;24.83;;
20379;SDS011;10349;48.666;8.948;2023-05-16T06:16:40;52.73;;;26.27;;
20379;SDS011;10349;48.666;8.948;2023-05-16T06:19:06;54.77;;;24.67;;
20379;SDS011;10349;48.666;8.948;2023-05-16T06:21:32;60.00;;;27.60;;
20379;SDS011;10349;48.666;8.948;2023-05-16T06:23:58;41.83;;;23.50;;
20379;SDS011;10349;48.666;8.948;2023-05-16T06:26:23;49.40;;;23.87;;
20379;SDS011;10349;48.666;8.948;2023-05-16T06:28:49;51.90;;;25.67;;
20379;SDS011;10349;48.666;8.948;2023-05-16T06:31:15;43.07;;;23.90;;
20379;SDS011;10349;48.666;8.948;2023-05-16T06:33:40;52.77;;;24.97;;
20379;SDS011;10349;48.666;8.948;2023-05-16T06:36:06;50.17;;;23.00;;
20379;SDS011;10349;48.666;8.948;2023-05-16T06:38:32;48.80;;;24.13;;
20379;SDS011;10349;48.666;8.948;2023-05-16T06:40:58;50.23;;;23.40;;
20379;SDS011;10349;48.666;8.948;2023-05-16T06:43:25;47.00;;;25.73;;
20379;SDS011;10349;48.666;8.948;2023-05-16T06:45:51;42.33;;;21.43;;
20379;SDS011;10349;48.666;8.948;2023-05-16T06:48:17;44.60;;;23.37;;
20379;SDS011;10349;48.666;8.948;2023-05-16T06:50:47;45.63;;;22.40;;
20379;SDS011;10349;48.666;8.948;2023-05-16T06:53:18;50.30;;;23.80;;
20379;SDS011;10349;48.666;8.948;2023-05-16T06:55:45;43.37;;;20.27;;
20379;SDS011;10349;48.666;8.948;2023-05-16T06:58:11;43.93;;;21.73;;
20379;SDS011;10349;48.666;8.948;2023-05-16T07:00:38;47.30;;;22.50;;
20379;SDS011;10349;48.666;8.948;2023-05-16T07:03:04;40.57;;;20.50;;
20379;SDS011;10349;48.666;8.948;2023-05-16T07:05:30;36.07;;;21.90;;
20379;SDS011;10349;48.666;8.948;2023-05-16T07:07:56;42.37;;;20.77;;
20379;SDS011;10349;48.666;8.948;2023-05-16T07:10:22;37.80;;;18.50;;
20379;SDS011;10349;48.666;8.948;2023-05-16T07:12:47;35.17;;;19.50;;
20379;SDS011;10349;48.666;8.948;2023-05-16T07:15:13;33.97;;;17.47;;
20379;SDS011;10349;48.666;8.948;2023-05-16T07:17:39;33.47;;;16.97;;
20379;SDS011;10349;48.666;8.948;2023-05-16T07:20:05;41.00;;;19.33;;
20379;SDS011;10349;48.666;8.948;2023-05-16T07:22:32;33.57;;;18.30;;
20379;SDS011;10349;48.666;8.948;2023-05-16T07:24:58;36.67;;;17.60;;
20379;SDS011;10349;48.666;8.948;2023-05-16T07:27:25;35.67;;;17.60;;
20379;SDS011;10349;48.666;8.948;2023-05-16T07:29:53;32.20;;;15.27;;
20379;SDS011;10349;48.666;8.948;2023-05-16T07:32:19;31.07;;;14.40;;
20379;SDS011;10349;48.666;8.948;2023-05-16T07:34:44;27.63;;;13.63;;
20379;SDS011;10349;48.666;8.948;2023-05-16T07:37:10;30.17;;;15.03;;
20379;SDS011;10349;48.666;8.948;2023-05-16T07:39:40;32.30;;;15.73;;
20379;SDS011;10349;48.666;8.948;2023-05-16T07:42:06;31.63;;;14.93;;
20379;SDS011;10349;48.666;8.948;2023-05-16T07:44:32;31.33;;;14.20;;
20379;SDS011;10349;48.666;8.948;2023-05-16T07:46:58;25.70;;;14.50;;
20379;SDS011;10349;48.666;8.948;2023-05-16T07:49:24;26.10;;;13.00;;
20379;SDS011;10349;48.666;8.948;2023-05-16T07:51:50;20.17;;;13.40;;
20379;SDS011;10349;48.666;8.948;2023-05-16T07:54:16;23.47;;;12.63;;
20379;SDS011;10349;48.666;8.948;2023-05-16T07:56:41;26.97;;;12.60;;
20379;SDS011;10349;48.666;8.948;2023-05-16T07:59:07;19.47;;;11.23;;
20379;SDS011;10349;48.666;8.948;2023-05-16T08:01:33;20.73;;;11.67;;
20379;SDS011;10349;48.666;8.948;2023-05-16T08:03:59;17.70;;;12.07;;
20379;SDS011;10349;48.666;8.948;2023-05-16T08:06:25;14.20;;;9.87;;
20379;SDS011;10349;48.666;8.948;2023-05-16T08:08:51;16.30;;;10.03;;
20379;SDS011;10349;48.666;8.948;2023-05-16T08:11:17;16.33;;;10.07;;
20379;SDS011;10349;48.666;8.948;2023-05-16T08:13:44;24.50;;;12.70;;
20379;SDS011;10349;48.666;8.948;2023-05-16T08:16:10;19.40;;;11.70;;
20379;SDS011;10349;48.666;8.948;2023-05-16T08:18:37;21.40;;;11.83;;
20379;SDS011;10349;48.666;8.948;2023-05-16T08:21:03;17.67;;;10.50;;
20379;SDS011;10349;48.666;8.948;2023-05-16T08:23:28;21.63;;;11.67;;
20379;SDS011;10349;48.666;8.948;2023-05-16T08:25:54;16.23;;;10.13;;
20379;SDS011;10349;48.666;8.948;2023-05-16T08:28:20;17.93;;;9.67;;
20379;SDS011;10349;48.666;8.948;2023-05-16T08:30:45;16.10;;;10.07;;
20379;SDS011;10349;48.666;8.948;2023-05-16T08:33:11;18.53;;;10.60;;
20379;SDS011;10349;48.666;8.948;2023-05-16T08:35:41;15.27;;;9.60;;
20379;SDS011;10349;48.666;8.948;2023-05-16T08:38:08;18.20;;;10.20;;
20379;SDS011;10349;48.666;8.948;2023-05-16T08:40:34;19.90;;;11.63;;
20379;SDS011;10349;48.666;8.948;2023-05-16T08:42:59;16.53;;;11.57;;
20379;SDS011;10349;48.666;8.948;2023-05-16T08:45:25;16.67;;;10.60;;
20379;SDS011;10349;48.666;8.948;2023-05-16T08:47:55;21.23;;;11.60;;
20379;SDS011;10349;48.666;8.948;2023-05-16T08:50:24;25.40;;;14.47;;
20379;SDS011;10349;48.666;8.948;2023-05-16T08:52:51;21.07;;;11.20;;
20379;SDS011;10349;48.666;8.948;2023-05-16T08:55:18;23.80;;;12.80;;
20379;SDS011;10349;48.666;8.948;2023-05-16T08:57:47;25.53;;;12.90;;
20379;SDS011;10349;48.666;8.948;2023-05-16T09:00:14;25.93;;;11.70;;
20379;SDS011;10349;48.666;8.948;2023-05-16T09:02:41;28.87;;;15.10;;
20379;SDS011;10349;48.666;8.948;2023-05-16T09:05:11;26.37;;;14.47;;
20379;SDS011;10349;48.666;8.948;2023-05-16T09:07:38;24.70;;;15.03;;
20379;SDS011;10349;48.666;8.948;2023-05-16T09:10:05;30.53;;;17.00;;
20379;SDS011;10349;48.666;8.948;2023-05-16T09:12:32;27.70;;;15.00;;
20379;SDS011;10349;48.666;8.948;2023-05-16T09:14:59;32.67;;;16.03;;
20379;SDS011;10349;48.666;8.948;2023-05-16T09:17:30;27.63;;;15.03;;
20379;SDS011;10349;48.666;8.948;2023-05-16T09:20:12;32.63;;;15.60;;
20379;SDS011;10349;48.666;8.948;2023-05-16T09:22:48;23.97;;;14.43;;
20379;SDS011;10349;48.666;8.948;2023-05-16T09:25:24;28.50;;;13.80;;
20379;SDS011;10349;48.666;8.948;2023-05-16T09:27:52;31.23;;;15.73;;
20379;SDS011;10349;48.666;8.948;2023-05-16T09:30:22;31.23;;;15.20;;
20379;SDS011;10349;48.666;8.948;2023-05-16T09:32:51;25.90;;;13.87;;
20379;SDS011;10349;48.666;8.948;2023-05-16T09:35:21;26.00;;;13.77;;
20379;SDS011;10349;48.666;8.948;2023-05-16T09:37:49;33.57;;;15.27;;
20379;SDS011;10349;48.666;8.948;2023-05-16T09:40:19;32.97;;;14.97;;
20379;SDS011;10349;48.666;8.948;2023-05-16T09:42:46;28.37;;;14.30;;
20379;SDS011;10349;48.666;8.948;2023-05-16T09:45:12;24.40;;;14.40;;
20379;SDS011;10349;48.666;8.948;2023-05-16T09:47:38;27.97;;;14.00;;
20379;SDS011;10349;48.666;8.948;2023-05-16T09:50:10;28.80;;;14.50;;
20379;SDS011;10349;48.666;8.948;2023-05-16T09:52:40;30.00;;;14.67;;
20379;SDS011;10349;48.666;8.948;2023-05-16T09:55:07;27.73;;;15.33;;
20379;SDS011;10349;48.666;8.948;2023-05-16T09:57:35;25.10;;;14.50;;
20379;SDS011;10349;48.666;8.948;2023-05-16T10:00:04;28.83;;;13.80;;
20379;SDS011;10349;48.666;8.948;2023-05-16T10:02:32;28.23;;;14.93;;
20379;SDS011;10349;48.666;8.948;2023-05-16T10:04:59;17.60;;;12.30;;
20379;SDS011;10349;48.666;8.948;2023-05-16T10:07:24;23.43;;;12.90;;
20379;SDS011;10349;48.666;8.948;2023-05-16T10:09:50;24.40;;;13.27;;
20379;SDS011;10349;48.666;8.948;2023-05-16T10:12:18;24.10;;;14.23;;
20379;SDS011;10349;48.666;8.948;2023-05-16T10:14:46;22.20;;;13.93;;
20379;SDS011;10349;48.666;8.948;2023-05-16T10:17:14;18.30;;;12.80;;
20379;SDS011;10349;48.666;8.948;2023-05-16T10:19:40;22.67;;;12.37;;
20379;SDS011;10349;48.666;8.948;2023-05-16T10:22:07;19.67;;;11.53;;
20379;SDS011;10349;48.666;8.948;2023-05-16T10:27:03;17.00;;;11.20;;
20379;SDS011;10349;48.666;8.948;2023-05-16T10:29:29;19.17;;;11.77;;
20379;SDS011;10349;48.666;8.948;2023-05-16T10:31:56;22.50;;;13.50;;
20379;SDS011;10349;48.666;8.948;2023-05-16T10:34:23;21.70;;;11.80;;
20379;SDS011;10349;48.666;8.948;2023-05-16T10:36:49;20.60;;;11.20;;
20379;SDS011;10349;48.666;8.948;2023-05-16T10:39:15;21.00;;;11.03;;
20379;SDS011;10349;48.666;8.948;2023-05-16T10:41:42;21.60;;;11.33;;
20379;SDS011;10349;48.666;8.948;2023-05-16T10:44:12;17.70;;;12.17;;
20379;SDS011;10349;48.666;8.948;2023-05-16T10:46:40;16.90;;;10.67;;
20379;SDS011;10349;48.666;8.948;2023-05-16T10:49:18;21.73;;;12.40;;
20379;SDS011;10349;48.666;8.948;2023-05-16T10:52:21;18.33;;;10.50;;
20379;SDS011;10349;48.666;8.948;2023-05-16T10:54:51;14.10;;;9.80;;
20379;SDS011;10349;48.666;8.948;2023-05-16T10:57:22;12.40;;;9.20;;
20379;SDS011;10349;48.666;8.948;2023-05-16T10:59:48;12.37;;;9.20;;
20379;SDS011;10349;48.666;8.948;2023-05-16T11:02:29;15.73;;;9.37;;
20379;SDS011;10349;48.666;8.948;2023-05-16T11:04:59;13.43;;;8.50;;
20379;SDS011;10349;48.666;8.948;2023-05-16T11:07:31;15.73;;;8.60;;
20379;SDS011;10349;48.666;8.948;2023-05-16T11:10:06;17.60;;;8.33;;
20379;SDS011;10349;48.666;8.948;2023-05-16T11:12:37;12.80;;;8.37;;
20379;SDS011;10349;48.666;8.948;2023-05-16T11:15:24;13.10;;;8.30;;
20379;SDS011;10349;48.666;8.948;2023-05-16T11:18:05;13.63;;;7.87;;
20379;SDS011;10349;48.666;8.948;2023-05-16T11:20:33;8.00;;;6.67;;
20379;SDS011;10349;48.666;8.948;2023-05-16T11:25:41;9.17;;;7.17;;
20379;SDS011;10349;48.666;8.948;2023-05-16T11:28:09;8.00;;;5.30;;
20379;SDS011;10349;48.666;8.948;2023-05-16T11:30:41;8.63;;;6.43;;
20379;SDS011;10349;48.666;8.948;2023-05-16T11:33:08;6.07;;;5.37;;
20379;SDS011;10349;48.666;8.948;2023-05-16T11:35:34;8.20;;;5.87;;
20379;SDS011;10349;48.666;8.948;2023-05-16T11:38:01;6.80;;;5.50;;
20379;SDS011;10349;48.666;8.948;2023-05-16T11:40:26;8.20;;;6.50;;
20379;SDS011;10349;48.666;8.948;2023-05-16T11:42:52;9.83;;;7.33;;
20379;SDS011;10349;48.666;8.948;2023-05-16T11:45:19;10.63;;;6.70;;
20379;SDS011;10349;48.666;8.948;2023-05-16T11:47:49;8.30;;;6.30;;
20379;SDS011;10349;48.666;8.948;2023-05-16T11:50:16;8.50;;;6.97;;
20379;SDS011;10349;48.666;8.948;2023-05-16T11:52:47;11.13;;;7.57;;
20379;SDS011;10349;48.666;8.948;2023-05-16T11:55:18;10.83;;;7.77;;
20379;SDS011;10349;48.666;8.948;2023-05-16T11:57:45;9.33;;;6.97;;
20379;SDS011;10349;48.666;8.948;2023-05-16T12:00:19;13.57;;;7.30;;
20379;SDS011;10349;48.666;8.948;2023-05-16T12:02:46;14.50;;;8.77;;
20379;SDS011;10349;48.666;8.948;2023-05-16T12:05:14;9.30;;;7.30;;
20379;SDS011;10349;48.666;8.948;2023-05-16T12:07:43;11.10;;;7.23;;
20379;SDS011;10349;48.666;8.948;2023-05-16T12:10:11;14.20;;;8.67;;
20379;SDS011;10349;48.666;8.948;2023-05-16T12:12:42;11.03;;;7.33;;
20379;SDS011;10349;48.666;8.948;2023-05-16T12:15:10;10.17;;;6.43;;
20379;SDS011;10349;48.666;8.948;2023-05-16T12:17:37;8.50;;;6.67;;
20379;SDS011;10349;48.666;8.948;2023-05-16T12:20:04;7.50;;;5.83;;
20379;SDS011;10349;48.666;8.948;2023-05-16T12:22:31;6.77;;;6.07;;
20379;SDS011;10349;48.666;8.948;2023-05-16T12:27:45;6.87;;;5.70;;
20379;SDS011;10349;48.666;8.948;2023-05-16T12:30:11;6.63;;;5.63;;
20379;SDS011;10349;48.666;8.948;2023-05-16T12:32:37;5.80;;;4.93;;
20379;SDS011;10349;48.666;8.948;2023-05-16T12:35:03;5.43;;;4.93;;
20379;SDS011;10349;48.666;8.948;2023-05-16T12:37:29;5.30;;;4.20;;
20379;SDS011;10349;48.666;8.948;2023-05-16T12:40:00;3.77;;;3.47;;
20379;SDS011;10349;48.666;8.948;2023-05-16T12:42:28;4.00;;;3.70;;
20379;SDS011;10349;48.666;8.948;2023-05-16T12:44:54;3.63;;;3.43;;
20379;SDS011;10349;48.666;8.948;2023-05-16T12:47:21;3.60;;;3.40;;
20379;SDS011;10349;48.666;8.948;2023-05-16T12:49:47;3.83;;;3.53;;
20379;SDS011;10349;48.666;8.948;2023-05-16T12:52:19;3.33;;;3.07;;
20379;SDS011;10349;48.666;8.948;2023-05-16T12:54:45;3.80;;;3.50;;
20379;SDS011;10349;48.666;8.948;2023-05-16T12:57:12;3.70;;;3.40;;
20379;SDS011;10349;48.666;8.948;2023-05-16T12:59:38;3.30;;;3.10;;
20379;SDS011;10349;48.666;8.948;2023-05-16T13:02:04;6.60;;;4.80;;
20379;SDS011;10349;48.666;8.948;2023-05-16T13:04:30;4.37;;;3.30;;
20379;SDS011;10349;48.666;8.948;2023-05-16T13:06:56;5.40;;;4.10;;
20379;SDS011;10349;48.666;8.948;2023-05-16T13:09:22;3.33;;;3.13;;
20379;SDS011;10349;48.666;8.948;2023-05-16T13:11:48;4.03;;;3.73;;
20379;SDS011;10349;48.666;8.948;2023-05-16T13:14:14;5.07;;;4.00;;
20379;SDS011;10349;48.666;8.948;2023-05-16T13:16:43;4.83;;;4.40;;
20379;SDS011;10349;48.666;8.948;2023-05-16T13:19:09;5.53;;;4.67;;
20379;SDS011;10349;48.666;8.948;2023-05-16T13:21:34;5.30;;;4.60;;
20379;SDS011;10349;48.666;8.948;2023-05-16T13:24:00;4.37;;;4.07;;
20379;SDS011;10349;48.666;8.948;2023-05-16T13:26:26;5.00;;;4.60;;
20379;SDS011;10349;48.666;8.948;2023-05-16T13:28:52;4.30;;;3.90;;
20379;SDS011;10349;48.666;8.948;2023-05-16T13:31:22;5.80;;;4.10;;
20379;SDS011;10349;48.666;8.948;2023-05-16T13:33:49;4.20;;;3.80;;
20379;SDS011;10349;48.666;8.948;2023-05-16T13:36:15;3.73;;;3.40;;
20379;SDS011;10349;48.666;8.948;2023-05-16T13:38:40;4.00;;;3.60;;
20379;SDS011;10349;48.666;8.948;2023-05-16T13:41:06;3.77;;;3.40;;
20379;SDS011;10349;48.666;8.948;2023-05-16T13:43:32;3.60;;;3.40;;
20379;SDS011;10349;48.666;8.948;2023-05-16T13:45:58;4.10;;;3.70;;
20379;SDS011;10349;48.666;8.948;2023-05-16T13:48:23;5.43;;;4.20;;
20379;SDS011;10349;48.666;8.948;2023-05-16T13:50:49;3.97;;;3.57;;
20379;SDS011;10349;48.666;8.948;2023-05-16T13:53:16;3.30;;;3.00;;
20379;SDS011;10349;48.666;8.948;2023-05-16T13:55:42;4.23;;;3.90;;
20379;SDS011;10349;48.666;8.948;2023-05-16T13:58:08;3.80;;;3.30;;
20379;SDS011;10349;48.666;8.948;2023-05-16T14:00:33;7.30;;;3.23;;
20379;SDS011;10349;48.666;8.948;2023-05-16T14:02:59;3.23;;;2.87;;
20379;SDS011;10349;48.666;8.948;2023-05-16T14:05:25;3.97;;;3.67;;
20379;SDS011;10349;48.666;8.948;2023-05-16T14:07:51;2.93;;;2.70;;
20379;SDS011;10349;48.666;8.948;2023-05-16T14:10:17;3.37;;;3.17;;
20379;SDS011;10349;48.666;8.948;2023-05-16T14:12:43;5.60;;;3.87;;
20379;SDS011;10349;48.666;8.948;2023-05-16T14:15:08;3.50;;;3.20;;
20379;SDS011;10349;48.666;8.948;2023-05-16T14:17:34;3.47;;;2.90;;
20379;SDS011;10349;48.666;8.948;2023-05-16T14:20:00;4.63;;;2.87;;
20379;SDS011;10349;48.666;8.948;2023-05-16T14:22:27;3.33;;;3.03;;
20379;SDS011;10349;48.666;8.948;2023-05-16T14:24:53;2.10;;;1.90;;
20379;SDS011;10349;48.666;8.948;2023-05-16T14:27:19;3.43;;;3.10;;
20379;SDS011;10349;48.666;8.948;2023-05-16T14:29:45;2.77;;;2.57;;
20379;SDS011;10349;48.666;8.948;2023-05-16T14:32:12;4.73;;;2.70;;
20379;SDS011;10349;48.666;8.948;2023-05-16T14:34:39;4.33;;;3.10;;
20379;SDS011;10349;48.666;8.948;2023-05-16T14:37:05;3.03;;;2.63;;
20379;SDS011;10349;48.666;8.948;2023-05-16T14:39:30;3.40;;;3.10;;
20379;SDS011;10349;48.666;8.948;2023-05-16T14:41:56;2.77;;;2.67;;
20379;SDS011;10349;48.666;8.948;2023-05-16T14:44:22;3.03;;;2.83;;